createdAt,value
2023-01-21T00:00:56.701Z,89.46
2023-01-21T00:02:28.702Z,89.50
2023-01-21T00:04:00.633Z,89.32
2023-01-21T00:05:32.526Z,89.51
2023-01-21T00:07:05.047Z,89.47
2023-01-21T00:08:36.861Z,89.65
2023-01-21T00:10:08.959Z,89.56
2023-01-21T00:11:40.876Z,89.45
2023-01-21T00:13:12.893Z,89.80
2023-01-21T00:16:24.152Z,89.86
2023-01-21T00:17:56.006Z,89.85
2023-01-21T00:19:29.367Z,89.85
2023-01-21T00:21:01.332Z,89.45
2023-01-21T00:22:36.565Z,89.58
2023-01-21T00:24:08.533Z,89.74
2023-01-21T00:25:40.389Z,89.84
2023-01-21T00:27:12.287Z,89.49
2023-01-21T00:28:44.543Z,89.13
2023-01-21T00:30:16.717Z,89.00
2023-01-21T00:31:49.240Z,88.89
2023-01-21T00:33:21.090Z,88.74
2023-01-21T00:34:53.653Z,88.67
2023-01-21T00:36:29.971Z,88.48
2023-01-21T00:38:01.909Z,88.36
2023-01-21T00:39:33.850Z,88.28
2023-01-21T00:41:06.531Z,88.39
2023-01-21T00:42:38.566Z,88.18
2023-01-21T00:44:10.471Z,88.40
2023-01-21T00:45:42.270Z,88.20
2023-01-21T00:47:14.143Z,88.04
2023-01-21T00:48:46.100Z,87.84
2023-01-21T00:51:58.435Z,87.70
2023-01-21T00:53:31.518Z,87.79
2023-01-21T00:55:03.581Z,87.96
2023-01-21T00:56:35.518Z,88.31
2023-01-21T00:58:07.319Z,88.47
2023-01-21T00:59:39.231Z,87.82
2023-01-21T01:01:15.177Z,87.53
2023-01-21T01:02:47.142Z,87.75
2023-01-21T01:04:19.184Z,87.64
2023-01-21T01:05:51.127Z,87.71
2023-01-21T01:07:23.228Z,87.69
2023-01-21T01:08:58.802Z,87.80
2023-01-21T01:10:30.749Z,87.87
2023-01-21T01:12:02.605Z,88.23
2023-01-21T01:13:35.237Z,88.28
2023-01-21T01:15:07.419Z,88.29
2023-01-21T01:16:39.299Z,87.97
2023-01-21T01:18:11.335Z,87.80
2023-01-21T01:19:43.157Z,87.71
2023-01-21T01:21:18.622Z,87.43
2023-01-21T01:22:50.441Z,87.51
2023-01-21T01:24:22.373Z,87.45
2023-01-21T01:25:57.802Z,87.65
2023-01-21T01:27:32.227Z,87.99
2023-01-21T01:29:04.496Z,87.97
2023-01-21T01:30:36.382Z,87.94
2023-01-21T01:32:08.266Z,88.37
2023-01-21T01:33:40.178Z,88.54
2023-01-21T01:35:12.144Z,88.44
2023-01-21T01:36:44.014Z,88.72
2023-01-21T01:38:16.114Z,88.21
2023-01-21T01:39:47.922Z,88.13
2023-01-21T01:41:24.064Z,88.10
2023-01-21T01:42:55.906Z,88.26
2023-01-21T01:44:46.044Z,88.15
2023-01-21T01:46:17.983Z,87.83
2023-01-21T01:47:58.414Z,87.77
2023-01-21T01:49:30.265Z,87.88
2023-01-21T01:51:02.542Z,87.65
2023-01-21T01:52:34.405Z,87.45
2023-01-21T01:55:40.069Z,87.32
2023-01-21T01:57:12.864Z,87.47
2023-01-21T01:58:44.728Z,87.52
2023-01-21T02:00:17.082Z,87.59
2023-01-21T02:01:49.145Z,87.56
2023-01-21T02:03:39.718Z,87.50
2023-01-21T02:05:12.060Z,87.54
2023-01-21T02:06:44.304Z,87.74
2023-01-21T02:08:16.243Z,87.77
2023-01-21T02:09:48.210Z,87.67
2023-01-21T02:11:20.144Z,87.55
2023-01-21T02:12:51.979Z,87.38
2023-01-21T02:14:23.774Z,87.44
2023-01-21T02:16:00.782Z,87.57
2023-01-21T02:18:07.998Z,87.62
2023-01-21T02:19:45.628Z,87.80
2023-01-21T02:21:40.491Z,87.85
2023-01-21T02:23:17.624Z,88.23
2023-01-21T02:25:01.361Z,88.12
2023-01-21T02:26:51.931Z,87.84
2023-01-21T02:28:42.402Z,87.60
2023-01-21T02:30:33.093Z,87.40
2023-01-21T02:32:16.896Z,87.22
2023-01-21T02:33:51.382Z,87.06
2023-01-21T02:35:23.355Z,87.13
2023-01-21T02:37:01.409Z,87.19
2023-01-21T02:38:35.640Z,87.17
2023-01-21T02:40:10.141Z,87.16
2023-01-21T02:42:20.661Z,86.92
2023-01-21T02:44:27.643Z,87.15
2023-01-21T02:46:04.664Z,87.35
2023-01-21T02:47:48.649Z,87.63
2023-01-21T02:49:22.200Z,87.41
2023-01-21T02:50:54.284Z,87.47
2023-01-21T02:52:26.589Z,87.40
2023-01-21T02:53:58.417Z,87.29
2023-01-21T02:55:31.534Z,87.25
2023-01-21T02:57:06.161Z,87.27
2023-01-21T03:00:15.163Z,87.19
2023-01-21T03:01:47.341Z,87.46
2023-01-21T03:03:22.860Z,87.69
2023-01-21T03:04:54.755Z,87.76
2023-01-21T03:06:30.574Z,87.84
2023-01-21T03:08:22.141Z,88.02
2023-01-21T03:09:55.092Z,87.91
2023-01-21T03:11:26.983Z,88.09
2023-01-21T03:13:02.568Z,88.03
2023-01-21T03:14:55.882Z,87.95
2023-01-21T03:16:48.504Z,87.81
2023-01-21T03:18:29.251Z,87.70
2023-01-21T03:20:21.590Z,87.74
2023-01-21T03:21:53.402Z,87.97
2023-01-21T03:23:29.367Z,87.97
2023-01-21T03:25:02.489Z,88.01
2023-01-21T03:26:36.526Z,88.09
2023-01-21T03:28:14.948Z,87.83
2023-01-21T03:29:47.389Z,87.76
2023-01-21T03:31:24.400Z,87.31
2023-01-21T03:32:56.419Z,87.13
2023-01-21T03:34:28.275Z,87.23
2023-01-21T03:36:00.152Z,87.37
2023-01-21T03:38:12.687Z,87.29
2023-01-21T03:39:44.610Z,87.07
2023-01-21T03:41:21.230Z,87.18
2023-01-21T03:42:56.602Z,87.40
2023-01-21T03:44:28.692Z,87.52
2023-01-21T03:46:10.648Z,87.56
2023-01-21T03:47:42.666Z,87.49
2023-01-21T03:49:26.131Z,87.45
2023-01-21T03:51:00.226Z,87.16
2023-01-21T03:52:32.186Z,86.96
2023-01-21T03:54:03.979Z,86.92
2023-01-21T03:55:36.750Z,86.85
2023-01-21T03:57:08.569Z,86.82
2023-01-21T03:58:40.405Z,86.88
2023-01-21T04:00:13.628Z,87.01
2023-01-21T04:01:45.480Z,86.96
2023-01-21T04:03:17.476Z,86.92
2023-01-21T04:04:49.454Z,86.70
2023-01-21T04:06:21.970Z,86.58
2023-01-21T04:07:53.781Z,87.08
2023-01-21T04:09:25.664Z,86.76
2023-01-21T04:10:57.606Z,86.94
2023-01-21T04:12:29.506Z,87.17
2023-01-21T04:14:01.422Z,87.23
2023-01-21T04:15:33.388Z,87.20
2023-01-21T04:17:05.331Z,86.82
2023-01-21T04:18:37.218Z,86.80
2023-01-21T04:20:09.360Z,87.08
2023-01-21T04:21:41.183Z,86.88
2023-01-21T04:23:13.217Z,86.73
2023-01-21T04:24:45.124Z,86.65
2023-01-21T04:26:16.941Z,86.57
2023-01-21T04:27:51.357Z,86.72
2023-01-21T04:29:23.322Z,86.91
2023-01-21T04:30:55.185Z,86.56
2023-01-21T04:32:27.012Z,86.61
2023-01-21T04:33:58.906Z,86.64
2023-01-21T04:35:30.790Z,86.86
2023-01-21T04:37:02.628Z,86.84
2023-01-21T04:38:34.535Z,86.74
2023-01-21T04:40:06.723Z,87.01
2023-01-21T04:41:38.683Z,86.88
2023-01-21T04:43:10.664Z,86.58
2023-01-21T04:44:42.588Z,86.54
2023-01-21T04:46:14.405Z,86.27
2023-01-21T04:47:47.759Z,86.16
2023-01-21T04:49:19.577Z,85.82
2023-01-21T04:50:54.529Z,85.89
2023-01-21T04:52:26.669Z,85.96
2023-01-21T04:53:58.568Z,85.60
2023-01-21T04:55:30.423Z,85.70
2023-01-21T04:57:02.272Z,85.85
2023-01-21T04:58:34.796Z,86.05
2023-01-21T05:00:07.552Z,86.40
2023-01-21T05:01:39.444Z,86.21
2023-01-21T05:03:11.282Z,86.04
2023-01-21T05:04:43.168Z,86.18
2023-01-21T05:06:15.079Z,86.42
2023-01-21T05:07:46.883Z,86.56
2023-01-21T05:09:18.800Z,86.64
2023-01-21T05:10:50.588Z,86.88
2023-01-21T05:12:22.475Z,87.14
2023-01-21T05:13:54.271Z,87.09
2023-01-21T05:15:26.241Z,87.26
2023-01-21T05:16:58.536Z,87.37
2023-01-21T05:18:30.373Z,87.55
2023-01-21T05:20:02.321Z,87.89
2023-01-21T05:21:34.240Z,87.97
2023-01-21T05:23:06.052Z,87.92
2023-01-21T05:24:37.900Z,88.14
2023-01-21T05:26:09.767Z,88.18
2023-01-21T05:29:21.597Z,88.30
2023-01-21T05:30:53.509Z,88.10
2023-01-21T05:32:25.422Z,88.13
2023-01-21T05:33:57.562Z,87.88
2023-01-21T05:35:32.066Z,88.24
2023-01-21T05:37:03.912Z,88.16
2023-01-21T05:38:35.763Z,88.19
2023-01-21T05:40:07.775Z,88.30
2023-01-21T05:41:39.639Z,88.10
2023-01-21T05:43:14.656Z,87.80
2023-01-21T05:44:49.194Z,87.59
2023-01-21T05:46:21.116Z,87.44
2023-01-21T05:47:53.673Z,87.67
2023-01-21T05:49:25.609Z,87.52
2023-01-21T05:51:00.373Z,87.53
2023-01-21T05:52:32.280Z,87.47
2023-01-21T05:54:04.146Z,87.41
2023-01-21T05:55:37.287Z,87.48
2023-01-21T05:57:09.178Z,87.91
2023-01-21T05:58:41.025Z,88.09
2023-01-21T06:00:13.220Z,88.00
2023-01-21T06:01:46.836Z,87.83
2023-01-21T06:03:19.054Z,87.92
2023-01-21T06:04:53.112Z,87.98
2023-01-21T06:06:25.034Z,87.73
2023-01-21T06:07:56.888Z,87.73
2023-01-21T06:09:28.634Z,87.33
2023-01-21T06:11:00.561Z,87.18
2023-01-21T06:12:32.385Z,86.91
2023-01-21T06:14:04.293Z,87.12
2023-01-21T06:15:36.178Z,87.10
2023-01-21T06:17:08.150Z,87.17
2023-01-21T06:18:40.066Z,87.23
2023-01-21T06:20:12.046Z,87.12
2023-01-21T06:21:43.848Z,87.31
2023-01-21T06:23:15.678Z,87.39
2023-01-21T06:24:47.624Z,87.52
2023-01-21T06:26:19.623Z,87.67
2023-01-21T06:27:51.516Z,87.87
2023-01-21T06:29:23.327Z,87.74
2023-01-21T06:30:55.290Z,87.90
2023-01-21T06:32:27.242Z,88.01
2023-01-21T06:33:59.153Z,88.28
2023-01-21T06:35:31.169Z,88.51
2023-01-21T06:37:03.166Z,88.19
2023-01-21T06:38:36.433Z,88.31
2023-01-21T06:40:11.634Z,88.42
2023-01-21T06:41:43.487Z,88.34
2023-01-21T06:43:15.334Z,88.51
2023-01-21T06:44:47.333Z,88.62
2023-01-21T06:46:19.205Z,88.66
2023-01-21T06:47:51.056Z,88.65
2023-01-21T06:49:22.984Z,88.90
2023-01-21T06:50:54.909Z,89.28
2023-01-21T06:52:26.776Z,89.64
2023-01-21T06:53:58.565Z,89.90
2023-01-21T06:55:30.439Z,89.94
2023-01-21T06:57:02.355Z,90.13
2023-01-21T06:58:34.347Z,90.20
2023-01-21T07:00:07.110Z,90.28
2023-01-21T07:01:39.066Z,90.21
2023-01-21T07:03:10.996Z,90.11
2023-01-21T07:04:42.922Z,90.19
2023-01-21T07:07:48.583Z,90.29
2023-01-21T07:09:20.639Z,90.40
2023-01-21T07:10:52.501Z,90.58
2023-01-21T07:12:24.468Z,90.73
2023-01-21T07:13:56.325Z,90.57
2023-01-21T07:15:31.233Z,90.88
2023-01-21T07:17:03.118Z,90.97
2023-01-21T07:18:35.360Z,90.99
2023-01-21T07:20:07.497Z,90.90
2023-01-21T07:21:41.728Z,90.97
2023-01-21T07:23:16.557Z,90.87
2023-01-21T07:24:48.437Z,90.75
2023-01-21T07:26:20.454Z,90.91
2023-01-21T07:27:52.294Z,90.97
2023-01-21T07:29:24.568Z,90.88
2023-01-21T07:30:58.819Z,91.01
2023-01-21T07:32:30.729Z,91.11
2023-01-21T07:34:02.884Z,91.05
2023-01-21T07:37:13.782Z,91.39
2023-01-21T07:38:45.713Z,91.42
2023-01-21T07:40:20.662Z,91.56
2023-01-21T07:41:52.487Z,91.30
2023-01-21T07:43:24.376Z,91.40
2023-01-21T07:44:57.463Z,91.45
2023-01-21T07:46:29.351Z,91.67
2023-01-21T07:48:01.365Z,91.66
2023-01-21T07:49:33.219Z,91.44
2023-01-21T07:51:05.315Z,91.78
2023-01-21T07:52:37.248Z,91.81
2023-01-21T07:54:10.161Z,91.59
2023-01-21T07:55:42.030Z,91.62
2023-01-21T07:57:14.412Z,91.67
2023-01-21T07:58:47.430Z,91.79
2023-01-21T08:00:19.444Z,92.00
2023-01-21T08:01:51.490Z,92.06
2023-01-21T08:03:25.380Z,91.83
2023-01-21T08:04:57.260Z,91.84
2023-01-21T08:06:29.111Z,92.02
2023-01-21T08:08:01.019Z,91.92
2023-01-21T08:09:32.960Z,91.78
2023-01-21T08:11:04.904Z,91.56
2023-01-21T08:12:36.744Z,91.64
2023-01-21T08:14:08.603Z,92.01
2023-01-21T08:15:40.531Z,91.98
2023-01-21T08:17:12.508Z,92.24
2023-01-21T08:18:44.495Z,92.02
2023-01-21T08:20:16.491Z,92.10
2023-01-21T08:21:48.438Z,91.84
2023-01-21T08:23:20.360Z,91.74
2023-01-21T08:24:52.338Z,91.69
2023-01-21T08:26:25.735Z,91.56
2023-01-21T08:27:58.988Z,91.66
2023-01-21T08:29:31.192Z,91.67
2023-01-21T08:31:06.730Z,91.06
2023-01-21T08:32:38.653Z,90.61
2023-01-21T08:34:10.539Z,90.60
2023-01-21T08:35:42.399Z,90.68
2023-01-21T08:37:14.307Z,90.67
2023-01-21T08:38:48.543Z,90.09
2023-01-21T08:40:24.234Z,90.19
2023-01-21T08:41:56.070Z,88.54
2023-01-21T08:43:28.002Z,88.03
2023-01-21T08:44:59.790Z,87.59
2023-01-21T08:46:31.615Z,87.55
2023-01-21T08:48:04.195Z,86.70
2023-01-21T08:49:36.142Z,86.55
2023-01-21T08:51:08.298Z,86.53
2023-01-21T08:52:40.152Z,85.93
2023-01-21T08:54:12.206Z,85.77
2023-01-21T08:55:44.385Z,86.21
2023-01-21T08:57:16.346Z,85.80
2023-01-21T08:58:48.220Z,85.90
2023-01-21T09:00:20.695Z,85.68
2023-01-21T09:01:52.604Z,84.99
2023-01-21T09:03:24.613Z,84.45
2023-01-21T09:04:56.521Z,84.45
2023-01-21T09:06:28.964Z,83.95
2023-01-21T09:08:00.789Z,84.65
2023-01-21T09:09:32.657Z,85.26
2023-01-21T09:11:05.742Z,85.17
2023-01-21T09:12:38.631Z,85.86
2023-01-21T09:14:10.528Z,85.18
2023-01-21T09:15:42.849Z,85.04
2023-01-21T09:17:14.767Z,84.48
2023-01-21T09:18:47.756Z,83.79
2023-01-21T09:20:19.635Z,83.00
2023-01-21T09:21:52.865Z,83.07
2023-01-21T09:23:24.962Z,83.06
2023-01-21T09:24:57.128Z,83.28
2023-01-21T09:26:29.126Z,83.04
2023-01-21T09:28:00.921Z,82.57
2023-01-21T09:29:32.737Z,82.32
2023-01-21T09:31:08.401Z,82.27
2023-01-21T09:32:40.269Z,82.44
2023-01-21T09:34:12.243Z,82.99
2023-01-21T09:35:44.876Z,83.02
2023-01-21T09:37:16.784Z,83.21
2023-01-21T09:38:49.054Z,82.53
2023-01-21T09:40:20.947Z,82.39
2023-01-21T09:41:53.328Z,82.64
2023-01-21T09:43:29.752Z,82.73
2023-01-21T09:45:01.683Z,82.57
2023-01-21T09:46:59.528Z,82.15
2023-01-21T09:48:38.774Z,81.95
2023-01-21T09:50:19.220Z,81.95
2023-01-21T09:52:11.508Z,81.66
2023-01-21T09:53:45.592Z,81.79
2023-01-21T09:55:17.779Z,81.94
2023-01-21T09:56:52.736Z,81.33
2023-01-21T09:58:29.929Z,81.62
2023-01-21T10:00:19.824Z,81.79
2023-01-21T10:01:51.629Z,81.34
2023-01-21T10:03:33.099Z,80.59
2023-01-21T10:05:14.868Z,80.05
2023-01-21T10:07:16.325Z,79.80
2023-01-21T10:08:50.885Z,79.83
2023-01-21T10:10:28.573Z,79.78
2023-01-21T10:12:12.578Z,80.00
2023-01-21T10:14:10.475Z,80.00
2023-01-21T10:15:44.757Z,80.06
2023-01-21T10:17:26.795Z,80.22
2023-01-21T10:18:58.946Z,80.41
2023-01-21T10:20:44.976Z,80.95
2023-01-21T10:22:18.245Z,80.92
2023-01-21T10:23:54.820Z,81.77
2023-01-21T10:25:33.306Z,81.39
2023-01-21T10:27:05.288Z,80.86
2023-01-21T10:28:41.098Z,80.17
2023-01-21T10:30:16.012Z,79.52
2023-01-21T10:31:59.793Z,78.76
2023-01-21T10:33:32.007Z,78.79
2023-01-21T10:35:06.739Z,79.10
2023-01-21T10:36:50.805Z,79.50
2023-01-21T10:38:25.497Z,79.53
2023-01-21T10:40:00.592Z,79.34
2023-01-21T10:41:38.647Z,79.64
2023-01-21T10:43:16.580Z,79.51
2023-01-21T10:45:00.476Z,78.74
2023-01-21T10:46:46.833Z,79.99
2023-01-21T10:48:20.308Z,80.29
2023-01-21T10:50:02.746Z,80.46
2023-01-21T10:51:45.435Z,80.53
2023-01-21T10:53:31.149Z,80.79
2023-01-21T10:55:05.904Z,80.52
2023-01-21T10:56:43.911Z,79.68
2023-01-21T10:58:21.063Z,80.43
2023-01-21T10:59:53.037Z,78.94
2023-01-21T11:01:28.825Z,78.35
2023-01-21T11:03:02.273Z,79.16
2023-01-21T11:04:34.177Z,79.19
2023-01-21T11:06:07.300Z,78.61
2023-01-21T11:07:40.224Z,78.08
2023-01-21T11:09:15.055Z,77.81
2023-01-21T11:10:47.599Z,77.29
2023-01-21T11:12:20.452Z,77.27
2023-01-21T11:13:52.350Z,77.77
2023-01-21T11:15:27.472Z,79.16
2023-01-21T11:16:59.399Z,79.86
2023-01-21T11:18:32.638Z,79.92
2023-01-21T11:20:05.969Z,79.87
2023-01-21T11:21:37.878Z,81.12
2023-01-21T11:23:32.156Z,80.37
2023-01-21T11:25:04.265Z,81.32
2023-01-21T11:26:36.601Z,80.88
2023-01-21T11:28:24.905Z,81.07
2023-01-21T11:29:56.861Z,80.84
2023-01-21T11:31:30.253Z,79.68
2023-01-21T11:33:11.978Z,78.41
2023-01-21T11:34:47.106Z,78.08
2023-01-21T11:36:19.945Z,79.30
2023-01-21T11:37:52.066Z,80.38
2023-01-21T11:39:24.625Z,79.39
2023-01-21T11:41:00.237Z,78.86
2023-01-21T11:42:32.470Z,77.84
2023-01-21T11:44:09.210Z,79.53
2023-01-21T11:45:41.097Z,79.87
2023-01-21T11:47:26.506Z,79.53
2023-01-21T11:49:17.175Z,78.69
2023-01-21T11:50:49.118Z,78.25
2023-01-21T11:52:23.755Z,78.25
2023-01-21T11:54:06.952Z,76.74
2023-01-21T11:56:03.529Z,76.29
2023-01-21T11:57:35.370Z,76.80
2023-01-21T11:59:22.145Z,76.46
2023-01-21T12:00:55.235Z,75.04
2023-01-21T12:02:27.113Z,75.11
2023-01-21T12:04:00.260Z,75.94
2023-01-21T12:05:36.313Z,76.61
2023-01-21T12:07:08.175Z,75.74
2023-01-21T12:08:40.088Z,76.24
2023-01-21T12:10:11.920Z,76.80
2023-01-21T12:13:38.200Z,74.80
2023-01-21T12:15:15.750Z,75.24
2023-01-21T12:17:06.194Z,74.62
2023-01-21T12:18:44.198Z,75.22
2023-01-21T12:20:27.299Z,74.55
2023-01-21T12:22:08.085Z,74.58
2023-01-21T12:23:46.390Z,75.32
2023-01-21T12:25:22.336Z,76.62
2023-01-21T12:27:01.691Z,74.94
2023-01-21T12:28:36.459Z,76.39
2023-01-21T12:30:08.441Z,77.08
2023-01-21T12:31:45.055Z,76.38
2023-01-21T12:33:21.483Z,76.43
2023-01-21T12:34:55.734Z,76.75
2023-01-21T12:36:30.456Z,76.47
2023-01-21T12:38:11.810Z,76.80
2023-01-21T12:39:43.662Z,76.77
2023-01-21T12:41:17.450Z,76.89
2023-01-21T12:42:50.937Z,76.27
2023-01-21T12:44:41.225Z,76.23
2023-01-21T12:46:17.694Z,75.94
2023-01-21T12:47:58.751Z,75.94
2023-01-21T12:49:49.347Z,75.70
2023-01-21T12:51:28.481Z,75.64
2023-01-21T12:53:11.387Z,75.61
2023-01-21T12:54:43.201Z,75.37
2023-01-21T12:56:26.907Z,75.71
2023-01-21T12:58:24.714Z,75.58
2023-01-21T13:00:04.125Z,75.44
2023-01-21T13:01:45.171Z,74.96
2023-01-21T13:03:35.899Z,74.08
2023-01-21T13:05:14.737Z,73.68
2023-01-21T13:07:15.751Z,73.55
2023-01-21T13:09:10.931Z,73.38
2023-01-21T13:10:44.737Z,73.57
2023-01-21T13:12:19.590Z,73.04
2023-01-21T13:13:55.812Z,73.12
2023-01-21T13:15:36.707Z,73.09
2023-01-21T13:17:24.465Z,72.05
2023-01-21T13:18:56.894Z,72.12
2023-01-21T13:20:28.742Z,72.58
2023-01-21T13:22:03.164Z,72.83
2023-01-21T13:23:34.984Z,72.45
2023-01-21T13:25:20.201Z,71.88
2023-01-21T13:27:10.901Z,72.83
2023-01-21T13:28:47.075Z,73.13
2023-01-21T13:30:40.959Z,73.45
2023-01-21T13:32:15.164Z,73.22
2023-01-21T13:33:49.733Z,72.59
2023-01-21T13:35:59.983Z,72.73
2023-01-21T13:37:41.105Z,72.42
2023-01-21T13:39:16.910Z,72.51
2023-01-21T13:40:48.880Z,72.61
2023-01-21T13:42:25.498Z,72.91
2023-01-21T13:44:00.113Z,72.97
2023-01-21T13:45:45.605Z,72.89
2023-01-21T13:47:46.889Z,71.64
2023-01-21T13:49:37.697Z,71.96
2023-01-21T13:51:09.568Z,72.21
2023-01-21T13:52:55.941Z,72.42
2023-01-21T13:54:30.249Z,72.66
2023-01-21T13:56:20.698Z,72.33
2023-01-21T13:58:02.916Z,72.53
2023-01-21T14:00:01.001Z,72.91
2023-01-21T14:01:35.964Z,72.92
2023-01-21T14:03:26.250Z,72.93
2023-01-21T14:05:00.792Z,72.96
2023-01-21T14:06:35.033Z,72.80
2023-01-21T14:08:09.404Z,73.46
2023-01-21T14:09:43.198Z,73.47
2023-01-21T14:11:20.990Z,73.73
2023-01-21T14:13:02.004Z,73.52
2023-01-21T14:14:39.647Z,74.08
2023-01-21T14:18:05.794Z,74.33
2023-01-21T14:19:40.228Z,74.35
2023-01-21T14:21:24.414Z,74.28
2023-01-21T14:23:11.574Z,73.67
2023-01-21T14:24:52.628Z,73.91
2023-01-21T14:26:33.909Z,73.42
2023-01-21T14:28:23.103Z,72.65
2023-01-21T14:29:59.744Z,72.91
2023-01-21T14:31:33.432Z,72.91
2023-01-21T14:33:09.939Z,73.18
2023-01-21T14:34:44.892Z,72.74
2023-01-21T14:36:18.586Z,72.92
2023-01-21T14:37:50.463Z,72.69
2023-01-21T14:39:42.290Z,72.78
2023-01-21T14:41:17.082Z,72.56
2023-01-21T14:42:49.750Z,72.89
2023-01-21T14:44:38.257Z,73.35
2023-01-21T14:46:25.702Z,73.73
2023-01-21T14:47:58.638Z,73.75
2023-01-21T14:49:39.876Z,73.79
2023-01-21T14:51:13.301Z,73.94
2023-01-21T14:52:45.571Z,73.86
2023-01-21T14:54:17.805Z,73.97
2023-01-21T14:56:08.246Z,74.31
2023-01-21T14:57:40.048Z,74.49
2023-01-21T14:59:25.668Z,74.47
2023-01-21T15:02:36.295Z,74.48
2023-01-21T15:04:23.451Z,74.58
2023-01-21T15:05:59.761Z,75.27
2023-01-21T15:07:34.422Z,75.05
2023-01-21T15:09:07.358Z,74.94
2023-01-21T15:10:39.744Z,75.08
2023-01-21T15:12:14.686Z,75.43
2023-01-21T15:13:46.655Z,75.61
2023-01-21T15:15:37.103Z,75.46
2023-01-21T15:17:27.463Z,75.79
2023-01-21T15:19:05.639Z,75.99
2023-01-21T15:20:43.353Z,76.50
2023-01-21T15:22:17.741Z,76.62
2023-01-21T15:23:50.336Z,77.30
2023-01-21T15:25:25.813Z,77.54
2023-01-21T15:27:03.688Z,77.44
2023-01-21T15:28:45.111Z,77.74
2023-01-21T15:32:18.960Z,78.37
2023-01-21T15:33:52.986Z,78.11
2023-01-21T15:35:32.060Z,78.38
2023-01-21T15:37:03.924Z,78.38
2023-01-21T15:38:39.296Z,78.39
2023-01-21T15:40:28.028Z,78.34
2023-01-21T15:42:12.810Z,78.11
2023-01-21T15:43:50.026Z,78.02
2023-01-21T15:45:29.464Z,78.52
2023-01-21T15:47:19.731Z,78.30
2023-01-21T15:49:03.873Z,78.47
2023-01-21T15:50:41.457Z,78.36
2023-01-21T15:52:39.329Z,78.41
2023-01-21T15:54:11.445Z,78.55
2023-01-21T15:55:52.175Z,78.88
2023-01-21T15:57:27.491Z,78.52
2023-01-21T15:59:18.176Z,78.43
2023-01-21T16:02:33.103Z,78.99
2023-01-21T16:04:07.678Z,79.05
2023-01-21T16:05:44.676Z,79.82
2023-01-21T16:07:34.528Z,80.03
2023-01-21T16:09:07.590Z,80.32
2023-01-21T16:10:56.043Z,80.40
2023-01-21T16:12:27.980Z,80.44
2023-01-21T16:13:59.905Z,80.36
2023-01-21T16:15:35.418Z,80.36
2023-01-21T16:17:07.646Z,80.45
2023-01-21T16:18:39.500Z,80.36
2023-01-21T16:20:11.883Z,80.70
2023-01-21T16:21:44.314Z,80.74
2023-01-21T16:23:16.348Z,81.03
2023-01-21T16:24:49.266Z,81.08
2023-01-21T16:26:27.939Z,81.59
2023-01-21T16:27:59.784Z,81.62
2023-01-21T16:31:17.902Z,82.15
2023-01-21T16:33:06.975Z,82.23
2023-01-21T16:34:42.849Z,82.56
2023-01-21T16:36:14.724Z,82.57
2023-01-21T16:37:46.547Z,82.89
2023-01-21T16:39:18.417Z,82.90
2023-01-21T16:40:50.777Z,83.18
2023-01-21T16:42:22.608Z,83.39
2023-01-21T16:44:00.902Z,83.44
2023-01-21T16:45:32.793Z,83.63
2023-01-21T16:47:04.670Z,83.95
2023-01-21T16:48:36.843Z,83.88
2023-01-21T16:50:34.624Z,84.02
2023-01-21T16:52:06.475Z,84.00
2023-01-21T16:53:38.321Z,84.41
2023-01-21T16:55:20.169Z,84.69
2023-01-21T16:56:52.008Z,84.75
2023-01-21T16:58:27.359Z,84.46
2023-01-21T17:00:02.771Z,84.41
2023-01-21T17:01:34.754Z,84.68
2023-01-21T17:03:08.155Z,84.74
2023-01-21T17:04:40.068Z,85.21
2023-01-21T17:06:21.811Z,85.01
2023-01-21T17:07:56.217Z,85.45
2023-01-21T17:09:29.574Z,85.29
2023-01-21T17:11:06.718Z,85.52
2023-01-21T17:12:38.799Z,85.54
2023-01-21T17:14:10.761Z,85.91
2023-01-21T17:15:43.313Z,85.70
2023-01-21T17:17:16.995Z,85.93
2023-01-21T17:18:51.999Z,85.70
2023-01-21T17:20:34.701Z,85.44
2023-01-21T17:22:14.185Z,85.67
2023-01-21T17:23:47.394Z,85.75
2023-01-21T17:25:22.131Z,85.69
2023-01-21T17:26:54.900Z,85.92
2023-01-21T17:28:33.474Z,86.09
2023-01-21T17:30:40.690Z,86.10
2023-01-21T17:32:31.828Z,86.56
2023-01-21T17:34:06.977Z,86.60
2023-01-21T17:35:38.977Z,86.94
2023-01-21T17:37:45.798Z,86.86
2023-01-21T17:39:35.859Z,87.18
2023-01-21T17:41:09.224Z,87.37
2023-01-21T17:42:41.134Z,87.31
2023-01-21T17:44:19.801Z,87.34
2023-01-21T17:45:55.425Z,87.56
2023-01-21T17:47:29.043Z,87.71
2023-01-21T17:49:07.263Z,87.71
2023-01-21T17:50:39.307Z,87.89
2023-01-21T17:52:18.105Z,87.92
2023-01-21T17:53:52.909Z,87.95
2023-01-21T17:55:27.936Z,87.82
2023-01-21T17:57:00.369Z,87.74
2023-01-21T17:58:32.270Z,87.73
2023-01-21T18:00:12.641Z,87.94
2023-01-21T18:01:44.602Z,87.86
2023-01-21T18:03:18.314Z,87.67
2023-01-21T18:04:50.403Z,87.81
2023-01-21T18:06:27.309Z,88.01
2023-01-21T18:07:59.173Z,87.72
2023-01-21T18:09:32.223Z,87.61
2023-01-21T18:11:04.099Z,87.64
2023-01-21T18:12:36.081Z,87.52
2023-01-21T18:14:10.396Z,87.52
2023-01-21T18:15:43.301Z,87.46
2023-01-21T18:17:18.484Z,87.20
2023-01-21T18:18:51.041Z,87.30
2023-01-21T18:20:24.532Z,87.42
2023-01-21T18:21:56.509Z,87.15
2023-01-21T18:23:28.978Z,87.17
2023-01-21T18:25:03.284Z,87.20
2023-01-21T18:26:35.648Z,87.17
2023-01-21T18:28:08.093Z,87.45
2023-01-21T18:29:39.934Z,87.42
2023-01-21T18:31:12.265Z,87.52
2023-01-21T18:32:44.325Z,87.64
2023-01-21T18:34:16.233Z,88.02
2023-01-21T18:35:48.424Z,87.89
2023-01-21T18:37:20.666Z,87.78
2023-01-21T18:38:52.686Z,87.83
2023-01-21T18:40:24.791Z,87.86
2023-01-21T18:41:56.623Z,87.83
2023-01-21T18:43:28.492Z,87.68
2023-01-21T18:45:00.296Z,87.91
2023-01-21T18:46:32.170Z,88.06
2023-01-21T18:48:04.129Z,88.27
2023-01-21T18:49:35.983Z,87.98
2023-01-21T18:51:08.403Z,88.09
2023-01-21T18:52:43.341Z,88.02
2023-01-21T18:54:15.646Z,87.81
2023-01-21T18:55:48.811Z,87.90
2023-01-21T18:57:21.811Z,88.19
2023-01-21T18:58:53.742Z,88.16
2023-01-21T19:00:25.682Z,88.14
2023-01-21T19:01:57.649Z,88.14
2023-01-21T19:03:29.554Z,88.28
2023-01-21T19:05:01.366Z,88.45
2023-01-21T19:06:33.281Z,88.65
2023-01-21T19:09:46.267Z,88.39
2023-01-21T19:11:18.382Z,88.59
2023-01-21T19:12:50.338Z,88.58
2023-01-21T19:14:22.180Z,88.40
2023-01-21T19:15:54.253Z,88.50
2023-01-21T19:17:27.320Z,88.39
2023-01-21T19:18:59.179Z,88.44
2023-01-21T19:20:31.161Z,88.49
2023-01-21T19:22:03.027Z,88.54
2023-01-21T19:23:36.019Z,88.70
2023-01-21T19:25:08.153Z,88.69
2023-01-21T19:26:40.137Z,88.58
2023-01-21T19:28:12.773Z,88.05
2023-01-21T19:29:44.630Z,88.01
2023-01-21T19:31:16.604Z,88.34
2023-01-21T19:32:49.136Z,88.31
2023-01-21T19:34:25.398Z,88.28
2023-01-21T19:36:02.057Z,87.99
2023-01-21T19:37:34.073Z,88.11
2023-01-21T19:39:09.556Z,88.01
2023-01-21T19:40:41.774Z,88.24
2023-01-21T19:42:14.715Z,88.22
2023-01-21T19:43:46.587Z,87.85
2023-01-21T19:45:19.254Z,88.20
2023-01-21T19:46:51.186Z,88.07
2023-01-21T19:48:23.132Z,88.05
2023-01-21T19:49:55.147Z,88.25
2023-01-21T19:51:32.021Z,88.33
2023-01-21T19:53:04.037Z,88.32
2023-01-21T19:54:35.881Z,88.50
2023-01-21T19:56:07.907Z,88.56
2023-01-21T19:57:40.559Z,88.30
2023-01-21T19:59:13.222Z,88.03
2023-01-21T20:00:45.387Z,87.93
2023-01-21T20:02:17.338Z,87.94
2023-01-21T20:03:59.657Z,88.18
2023-01-21T20:05:35.243Z,88.02
2023-01-21T20:07:07.513Z,88.30
2023-01-21T20:08:39.463Z,88.35
2023-01-21T20:10:21.767Z,88.28
2023-01-21T20:11:53.618Z,87.99
2023-01-21T20:13:27.871Z,87.88
2023-01-21T20:14:59.847Z,88.03
2023-01-21T20:16:33.049Z,88.33
2023-01-21T20:18:05.100Z,88.04
2023-01-21T20:19:37.004Z,87.93
2023-01-21T20:21:08.848Z,87.68
2023-01-21T20:22:40.662Z,87.87
2023-01-21T20:24:12.553Z,88.00
2023-01-21T20:25:44.906Z,87.80
2023-01-21T20:27:16.718Z,87.83
2023-01-21T20:28:51.613Z,87.87
2023-01-21T20:30:24.470Z,87.72
2023-01-21T20:31:56.419Z,87.95
2023-01-21T20:33:28.232Z,87.85
2023-01-21T20:35:00.070Z,88.26
2023-01-21T20:36:31.876Z,87.94
2023-01-21T20:38:03.878Z,87.77
2023-01-21T20:39:35.863Z,87.85
2023-01-21T20:41:07.696Z,87.77
2023-01-21T20:42:39.529Z,87.87
2023-01-21T20:44:11.347Z,87.71
2023-01-21T20:45:44.297Z,87.67
2023-01-21T20:47:19.199Z,87.37
2023-01-21T20:48:59.481Z,87.62
2023-01-21T20:50:34.010Z,87.53
2023-01-21T20:52:05.877Z,87.74